createdAt,value
2022-08-25T00:00:12.356Z,24.60
2022-08-25T00:02:39.045Z,24.60
2022-08-25T00:05:06.585Z,24.50
2022-08-25T00:07:34.141Z,24.50
2022-08-25T00:10:00.728Z,24.60
2022-08-25T00:12:27.329Z,24.60
2022-08-25T00:14:55.076Z,24.60
2022-08-25T00:17:21.668Z,24.60
2022-08-25T00:19:48.275Z,24.60
2022-08-25T00:22:14.847Z,24.60
2022-08-25T00:24:41.495Z,24.50
2022-08-25T00:27:08.362Z,24.50
2022-08-25T00:29:37.881Z,24.50
2022-08-25T00:32:05.633Z,24.50
2022-08-25T00:34:37.117Z,24.50
2022-08-25T00:37:07.156Z,24.40
2022-08-25T00:39:33.824Z,24.30
2022-08-25T00:42:00.786Z,24.30
2022-08-25T00:44:30.311Z,24.20
2022-08-25T00:46:59.987Z,24.20
2022-08-25T00:49:31.520Z,24.10
2022-08-25T00:52:27.695Z,24.10
2022-08-25T00:55:07.850Z,24.00
2022-08-25T00:57:40.167Z,24.00
2022-08-25T01:00:12.824Z,23.90
2022-08-25T01:02:40.096Z,23.80
2022-08-25T01:05:07.718Z,23.80
2022-08-25T01:07:44.605Z,23.80
2022-08-25T01:10:14.191Z,23.80
2022-08-25T01:15:27.969Z,23.80
2022-08-25T01:17:59.853Z,23.70
2022-08-25T01:20:30.670Z,23.70
2022-08-25T01:23:02.385Z,23.70
2022-08-25T01:25:42.826Z,23.70
2022-08-25T01:28:11.167Z,23.60
2022-08-25T01:30:40.733Z,23.70
2022-08-25T01:33:13.088Z,23.90
2022-08-25T01:41:05.530Z,23.50
2022-08-25T01:43:38.575Z,23.40
2022-08-25T01:46:05.625Z,23.70
2022-08-25T01:48:33.165Z,23.40
2022-08-25T01:51:01.922Z,23.20
2022-08-25T01:56:30.124Z,23.10
2022-08-25T01:58:56.872Z,23.10
2022-08-25T02:01:24.585Z,23.10
2022-08-25T02:03:53.269Z,23.10
2022-08-25T02:06:28.838Z,23.20
2022-08-25T02:09:00.954Z,23.10
2022-08-25T02:11:28.263Z,23.10
2022-08-25T02:13:55.055Z,23.00
2022-08-25T02:16:27.845Z,23.00
2022-08-25T02:18:55.838Z,23.00
2022-08-25T02:21:22.875Z,22.90
2022-08-25T02:23:53.208Z,22.90
2022-08-25T02:26:20.301Z,22.90
2022-08-25T02:28:48.252Z,22.80
2022-08-25T02:31:16.391Z,22.70
2022-08-25T02:33:43.341Z,22.70
2022-08-25T02:36:10.159Z,22.50
2022-08-25T02:38:37.758Z,22.50
2022-08-25T02:41:15.008Z,22.40
2022-08-25T02:43:43.701Z,22.30
2022-08-25T02:46:12.131Z,22.20
2022-08-25T02:48:40.119Z,22.20
2022-08-25T02:51:08.748Z,22.20
2022-08-25T02:53:39.523Z,22.20
2022-08-25T02:56:11.644Z,22.10
2022-08-25T02:58:40.032Z,22.20
2022-08-25T03:01:07.637Z,22.10
2022-08-25T03:03:39.246Z,22.10
2022-08-25T03:06:08.508Z,22.10
2022-08-25T03:08:36.547Z,22.00
2022-08-25T03:11:04.999Z,22.00
2022-08-25T03:13:32.310Z,21.90
2022-08-25T03:16:04.238Z,22.00
2022-08-25T03:18:31.717Z,22.00
2022-08-25T03:20:58.928Z,22.00
2022-08-25T03:23:25.943Z,22.00
2022-08-25T03:26:13.528Z,21.90
2022-08-25T03:28:41.589Z,21.80
2022-08-25T03:31:09.537Z,21.90
2022-08-25T03:33:36.303Z,21.90
2022-08-25T03:36:03.299Z,21.90
2022-08-25T03:38:29.921Z,21.90
2022-08-25T03:40:56.592Z,21.90
2022-08-25T03:43:23.279Z,21.80
2022-08-25T03:45:51.078Z,21.80
2022-08-25T03:48:18.076Z,21.80
2022-08-25T03:50:50.597Z,21.70
2022-08-25T03:53:18.945Z,21.70
2022-08-25T03:55:45.776Z,21.60
2022-08-25T03:58:12.602Z,21.70
2022-08-25T04:00:39.463Z,21.60
2022-08-25T04:03:06.118Z,21.60
2022-08-25T04:05:33.041Z,21.50
2022-08-25T04:08:02.022Z,21.50
2022-08-25T04:10:29.940Z,21.50
2022-08-25T04:12:57.143Z,21.50
2022-08-25T04:15:24.917Z,21.40
2022-08-25T04:17:58.656Z,21.40
2022-08-25T04:20:25.286Z,21.30
2022-08-25T04:22:51.965Z,21.30
2022-08-25T04:25:18.550Z,21.30
2022-08-25T04:27:45.146Z,21.30
2022-08-25T04:30:12.565Z,21.20
2022-08-25T04:32:39.157Z,21.20
2022-08-25T04:35:06.254Z,21.20
2022-08-25T04:37:33.366Z,21.20
2022-08-25T04:40:00.260Z,21.20
2022-08-25T04:42:27.240Z,21.20
2022-08-25T04:44:54.494Z,21.20
2022-08-25T04:47:21.591Z,21.30
2022-08-25T04:49:48.360Z,21.30
2022-08-25T04:52:15.496Z,21.30
2022-08-25T04:54:42.557Z,21.30
2022-08-25T04:57:09.452Z,21.40
2022-08-25T04:59:36.101Z,21.30
2022-08-25T05:02:03.298Z,21.30
2022-08-25T05:04:31.949Z,21.30
2022-08-25T05:06:58.827Z,21.30
2022-08-25T05:09:26.579Z,21.30
2022-08-25T05:11:54.696Z,21.30
2022-08-25T05:14:25.569Z,21.30
2022-08-25T05:16:57.914Z,21.20
2022-08-25T05:19:25.239Z,21.10
2022-08-25T05:21:52.647Z,21.10
2022-08-25T05:24:20.203Z,21.00
2022-08-25T05:26:46.868Z,21.00
2022-08-25T05:29:14.330Z,20.90
2022-08-25T05:31:43.980Z,20.90
2022-08-25T05:34:12.708Z,20.80
2022-08-25T05:36:43.128Z,20.80
2022-08-25T05:39:10.670Z,20.80
2022-08-25T05:41:37.739Z,20.80
2022-08-25T05:44:04.896Z,20.70
2022-08-25T05:46:33.756Z,20.70
2022-08-25T05:49:00.534Z,20.70
2022-08-25T05:51:27.567Z,20.70
2022-08-25T05:53:54.534Z,20.70
2022-08-25T05:56:21.329Z,20.70
2022-08-25T05:58:47.940Z,20.70
2022-08-25T06:01:46.077Z,20.70
2022-08-25T06:04:14.152Z,20.70
2022-08-25T06:06:41.067Z,20.60
2022-08-25T06:09:09.359Z,20.60
2022-08-25T06:11:40.157Z,20.60
2022-08-25T06:14:08.676Z,20.70
2022-08-25T06:16:35.356Z,20.70
2022-08-25T06:19:02.099Z,20.70
2022-08-25T06:21:29.100Z,20.80
2022-08-25T06:23:56.744Z,20.80
2022-08-25T06:26:23.607Z,20.80
2022-08-25T06:28:53.931Z,20.80
2022-08-25T06:31:22.229Z,20.80
2022-08-25T06:33:49.512Z,20.90
2022-08-25T06:36:16.612Z,20.90
2022-08-25T06:38:43.615Z,20.90
2022-08-25T06:41:13.887Z,20.90
2022-08-25T06:43:48.138Z,21.00
2022-08-25T06:46:19.743Z,21.00
2022-08-25T06:48:46.592Z,21.10
2022-08-25T06:51:15.612Z,21.10
2022-08-25T06:53:43.757Z,21.10
2022-08-25T06:56:10.940Z,21.10
2022-08-25T06:58:38.156Z,21.10
2022-08-25T07:01:22.289Z,21.10
2022-08-25T07:03:52.660Z,21.10
2022-08-25T07:06:19.719Z,21.20
2022-08-25T07:08:47.909Z,21.20
2022-08-25T07:11:16.708Z,21.20
2022-08-25T07:13:45.536Z,21.20
2022-08-25T07:16:12.685Z,21.10
2022-08-25T07:18:39.566Z,21.10
2022-08-25T07:21:08.925Z,21.10
2022-08-25T07:23:36.462Z,21.10
2022-08-25T07:26:15.778Z,21.10
2022-08-25T07:28:54.235Z,21.10
2022-08-25T07:31:21.493Z,21.10
2022-08-25T07:34:14.973Z,21.10
2022-08-25T07:36:43.601Z,21.10
2022-08-25T07:39:10.811Z,21.20
2022-08-25T07:41:39.744Z,21.20
2022-08-25T07:44:07.456Z,21.30
2022-08-25T07:46:34.349Z,21.20
2022-08-25T07:49:01.766Z,21.30
2022-08-25T07:51:29.693Z,21.40
2022-08-25T07:53:56.818Z,21.40
2022-08-25T07:56:23.437Z,21.40
2022-08-25T07:58:50.631Z,21.40
2022-08-25T08:01:20.668Z,21.40
2022-08-25T08:03:50.324Z,21.40
2022-08-25T08:06:20.742Z,21.30
2022-08-25T08:08:49.299Z,21.40
2022-08-25T08:11:26.190Z,21.40
2022-08-25T08:13:54.281Z,21.40
2022-08-25T08:16:22.951Z,21.50
2022-08-25T08:18:50.637Z,21.50
2022-08-25T08:21:22.400Z,21.50
2022-08-25T08:23:53.390Z,21.50
2022-08-25T08:26:36.236Z,21.50
2022-08-25T08:29:10.361Z,21.60
2022-08-25T08:31:37.124Z,21.70
2022-08-25T08:34:04.052Z,21.70
2022-08-25T08:36:31.574Z,21.80
2022-08-25T08:38:58.209Z,21.80
2022-08-25T08:42:18.740Z,21.80
2022-08-25T08:44:50.337Z,21.80
2022-08-25T08:47:36.194Z,21.90
2022-08-25T08:50:40.575Z,21.90
2022-08-25T08:53:36.271Z,22.00
2022-08-25T08:56:11.847Z,22.10
2022-08-25T08:58:54.944Z,22.20
2022-08-25T09:01:30.505Z,22.20
2022-08-25T09:04:12.883Z,22.20
2022-08-25T09:06:47.674Z,22.30
2022-08-25T09:09:28.704Z,22.40
2022-08-25T09:12:22.292Z,22.50
2022-08-25T09:15:12.655Z,22.60
2022-08-25T09:17:42.974Z,22.70
2022-08-25T09:20:35.805Z,22.70
2022-08-25T09:23:20.515Z,22.70
2022-08-25T09:26:06.191Z,22.70
2022-08-25T09:28:51.377Z,22.80
2022-08-25T09:31:29.429Z,22.90
2022-08-25T09:33:58.306Z,22.90
2022-08-25T09:36:25.696Z,22.90
2022-08-25T09:38:52.411Z,23.00
2022-08-25T09:41:47.499Z,23.20
2022-08-25T09:44:43.519Z,23.30
2022-08-25T09:47:28.080Z,23.30
2022-08-25T09:50:05.428Z,23.40
2022-08-25T09:52:42.212Z,23.50
2022-08-25T09:55:08.758Z,23.50
2022-08-25T09:57:42.859Z,23.60
2022-08-25T10:00:18.536Z,23.70
2022-08-25T10:03:09.980Z,23.90
2022-08-25T10:06:05.387Z,24.10
2022-08-25T10:09:00.770Z,24.40
2022-08-25T10:11:47.523Z,24.60
2022-08-25T10:14:17.147Z,24.80
2022-08-25T10:16:46.817Z,24.90
2022-08-25T10:19:29.277Z,24.90
2022-08-25T10:22:20.261Z,24.90
2022-08-25T10:24:47.060Z,25.00
2022-08-25T10:27:38.927Z,25.10
2022-08-25T10:30:27.983Z,25.30
2022-08-25T10:33:06.634Z,25.60
2022-08-25T10:35:47.197Z,25.70
2022-08-25T10:38:33.431Z,25.80
2022-08-25T10:41:15.649Z,26.00
2022-08-25T10:44:04.072Z,26.00
2022-08-25T10:46:49.735Z,26.30
2022-08-25T10:49:28.073Z,26.30
2022-08-25T10:52:05.312Z,26.40
2022-08-25T10:54:54.852Z,26.50
2022-08-25T10:57:47.070Z,26.70
2022-08-25T11:00:23.025Z,26.80
2022-08-25T11:03:01.671Z,27.00
2022-08-25T11:05:36.604Z,27.20
2022-08-25T11:08:10.240Z,27.30
2022-08-25T11:11:01.080Z,27.30
2022-08-25T11:13:58.080Z,27.10
2022-08-25T11:16:34.120Z,27.10
2022-08-25T11:19:09.117Z,27.00
2022-08-25T11:22:01.811Z,27.00
2022-08-25T11:24:49.495Z,27.10
2022-08-25T11:27:32.640Z,27.20
2022-08-25T11:30:08.392Z,27.10
2022-08-25T11:32:39.502Z,27.20
2022-08-25T11:35:12.641Z,27.20
2022-08-25T11:38:01.755Z,27.30
2022-08-25T11:41:01.012Z,27.50
2022-08-25T11:43:46.268Z,27.80
2022-08-25T11:46:31.367Z,28.00
2022-08-25T11:49:09.489Z,28.10
2022-08-25T11:51:50.325Z,28.20
2022-08-25T11:54:20.144Z,28.30
2022-08-25T11:57:04.129Z,28.60
2022-08-25T11:59:49.677Z,28.80
2022-08-25T12:02:39.098Z,28.90
2022-08-25T12:05:24.061Z,29.10
2022-08-25T12:08:13.713Z,29.10
2022-08-25T12:10:56.976Z,29.10
2022-08-25T12:13:49.892Z,29.40
2022-08-25T12:16:43.550Z,29.70
2022-08-25T12:19:36.964Z,29.80
2022-08-25T12:22:04.712Z,29.70
2022-08-25T12:24:47.916Z,29.70
2022-08-25T12:27:52.569Z,29.80
2022-08-25T12:30:26.293Z,30.00
2022-08-25T12:33:12.259Z,29.90
2022-08-25T12:36:00.142Z,30.10
2022-08-25T12:38:51.840Z,30.10
2022-08-25T12:41:31.448Z,30.10
2022-08-25T12:44:36.460Z,30.10
2022-08-25T12:47:13.885Z,30.40
2022-08-25T12:49:40.988Z,30.40
2022-08-25T12:52:16.751Z,30.30
2022-08-25T12:54:58.129Z,30.20
2022-08-25T12:57:50.886Z,30.30
2022-08-25T13:00:32.727Z,30.10
2022-08-25T13:06:21.998Z,30.20
2022-08-25T13:08:54.694Z,30.50
2022-08-25T13:11:46.518Z,30.50
2022-08-25T13:14:40.704Z,30.50
2022-08-25T13:17:09.616Z,30.30
2022-08-25T13:19:37.254Z,30.40
2022-08-25T13:22:16.119Z,30.60
2022-08-25T13:24:47.543Z,30.70
2022-08-25T13:27:23.977Z,31.00
2022-08-25T13:29:54.964Z,30.90
2022-08-25T13:32:32.168Z,30.90
2022-08-25T13:35:20.644Z,31.00
2022-08-25T13:37:48.031Z,31.10
2022-08-25T13:40:19.931Z,31.20
2022-08-25T13:43:01.132Z,31.40
2022-08-25T13:45:34.510Z,31.60
2022-08-25T13:48:20.987Z,31.80
2022-08-25T13:50:51.786Z,31.90
2022-08-25T13:53:25.042Z,32.00
2022-08-25T13:55:53.246Z,32.00
2022-08-25T13:58:39.334Z,31.90
2022-08-25T14:01:23.152Z,32.00
2022-08-25T14:04:20.681Z,31.70
2022-08-25T14:06:47.863Z,31.70
2022-08-25T14:09:18.695Z,31.90
2022-08-25T14:11:59.155Z,31.80
2022-08-25T14:14:25.683Z,32.00
2022-08-25T14:17:00.790Z,32.30
2022-08-25T14:19:30.405Z,32.50
2022-08-25T14:22:01.973Z,32.50
2022-08-25T14:24:39.147Z,32.30
2022-08-25T14:27:07.548Z,32.10
2022-08-25T14:29:41.185Z,32.10
2022-08-25T14:32:09.292Z,32.00
2022-08-25T14:34:38.504Z,32.00
2022-08-25T14:37:19.989Z,32.30
2022-08-25T14:39:47.114Z,32.40
2022-08-25T14:42:14.480Z,32.30
2022-08-25T14:44:41.135Z,32.30
2022-08-25T14:47:08.090Z,32.40
2022-08-25T14:49:41.559Z,32.50
2022-08-25T14:52:22.526Z,32.60
2022-08-25T14:54:49.648Z,33.00
2022-08-25T14:57:19.911Z,33.20
2022-08-25T14:59:48.440Z,33.20
2022-08-25T15:02:20.332Z,33.10
2022-08-25T15:04:56.303Z,33.00
2022-08-25T15:07:41.920Z,32.70
2022-08-25T15:10:09.325Z,32.60
2022-08-25T15:12:47.477Z,32.50
2022-08-25T15:15:15.016Z,32.50
2022-08-25T15:17:41.948Z,32.40
2022-08-25T15:20:11.916Z,32.30
2022-08-25T15:22:38.656Z,32.30
2022-08-25T15:25:05.836Z,32.50
2022-08-25T15:27:34.543Z,32.60
2022-08-25T15:30:01.096Z,32.70
2022-08-25T15:32:27.841Z,32.70
2022-08-25T15:34:54.555Z,32.80
2022-08-25T15:37:21.160Z,32.80
2022-08-25T15:39:48.794Z,32.60
2022-08-25T15:42:16.569Z,32.40
2022-08-25T15:44:53.265Z,32.50
2022-08-25T15:47:21.577Z,32.50
2022-08-25T15:49:48.175Z,32.60
2022-08-25T15:52:15.458Z,32.70
2022-08-25T15:54:42.058Z,32.70
2022-08-25T15:57:24.150Z,32.80
2022-08-25T15:59:52.412Z,33.00
2022-08-25T16:02:20.698Z,33.00
2022-08-25T16:04:47.563Z,33.10
2022-08-25T16:07:14.313Z,33.20
2022-08-25T16:09:41.681Z,33.40
2022-08-25T16:12:08.529Z,33.70
2022-08-25T16:14:35.639Z,33.70
2022-08-25T16:17:02.419Z,33.90
2022-08-25T16:19:29.530Z,33.90
2022-08-25T16:21:56.407Z,34.00
2022-08-25T16:24:23.101Z,34.10
2022-08-25T16:26:50.472Z,34.10
2022-08-25T16:29:20.923Z,34.20
2022-08-25T16:31:54.887Z,34.30
2022-08-25T16:34:22.196Z,34.60
2022-08-25T16:36:52.218Z,34.70
2022-08-25T16:39:19.809Z,34.70
2022-08-25T16:41:47.598Z,34.80
2022-08-25T16:44:14.269Z,34.70
2022-08-25T16:46:42.106Z,34.50
2022-08-25T16:49:13.622Z,34.30
2022-08-25T16:51:43.024Z,33.40
2022-08-25T16:54:30.427Z,33.10
2022-08-25T16:56:57.723Z,33.20
2022-08-25T16:59:25.832Z,33.40
2022-08-25T17:01:52.922Z,33.60
2022-08-25T17:04:20.764Z,33.50
2022-08-25T17:06:58.707Z,33.50
2022-08-25T17:09:25.323Z,33.50
2022-08-25T17:11:56.445Z,33.70
2022-08-25T17:14:23.192Z,33.70
2022-08-25T17:16:54.956Z,33.90
2022-08-25T17:19:23.556Z,33.60
2022-08-25T17:21:54.325Z,33.10
2022-08-25T17:24:22.312Z,32.80
2022-08-25T17:26:56.349Z,32.70
2022-08-25T17:29:23.103Z,32.80
2022-08-25T17:31:51.019Z,32.80
2022-08-25T17:34:22.999Z,32.40
2022-08-25T17:36:51.867Z,32.00
2022-08-25T17:39:19.800Z,32.20
2022-08-25T17:41:50.642Z,32.60
2022-08-25T17:44:17.628Z,32.40
2022-08-25T17:46:47.475Z,32.30
2022-08-25T17:49:17.810Z,32.50
2022-08-25T17:51:44.428Z,32.70
2022-08-25T17:54:11.965Z,32.40
2022-08-25T17:56:39.308Z,32.40
2022-08-25T17:59:06.173Z,32.60
2022-08-25T18:01:35.077Z,32.80
2022-08-25T18:04:07.003Z,32.60
2022-08-25T18:06:44.167Z,32.50
2022-08-25T18:09:10.786Z,32.50
2022-08-25T18:11:37.394Z,32.20
2022-08-25T18:14:04.236Z,32.00
2022-08-25T18:16:31.009Z,31.70
2022-08-25T18:18:57.883Z,31.60
2022-08-25T18:21:25.268Z,31.30
2022-08-25T18:23:57.078Z,31.10
2022-08-25T18:26:25.466Z,31.10
2022-08-25T18:28:52.661Z,31.10
2022-08-25T18:31:19.788Z,31.10
2022-08-25T18:33:46.665Z,31.10
2022-08-25T18:36:13.841Z,31.00
2022-08-25T18:39:00.344Z,30.90
2022-08-25T18:41:34.771Z,30.60
2022-08-25T18:44:01.727Z,30.30
2022-08-25T18:46:28.621Z,30.10
2022-08-25T18:48:55.582Z,30.00
2022-08-25T18:51:23.592Z,29.70
2022-08-25T18:53:54.704Z,29.80
2022-08-25T18:56:27.672Z,30.00
2022-08-25T18:59:01.935Z,29.90
2022-08-25T19:01:29.039Z,29.80
2022-08-25T19:03:56.745Z,29.50
2022-08-25T19:06:23.774Z,29.30
2022-08-25T19:08:50.439Z,29.50
2022-08-25T19:11:22.373Z,29.60
2022-08-25T19:13:49.747Z,29.60
2022-08-25T19:16:20.502Z,29.40
2022-08-25T19:18:48.906Z,29.20
2022-08-25T19:21:22.714Z,29.30
2022-08-25T19:23:52.352Z,29.20
2022-08-25T19:26:19.563Z,29.10
2022-08-25T19:28:48.671Z,29.00
2022-08-25T19:31:18.291Z,28.80
2022-08-25T19:33:46.021Z,28.80
2022-08-25T19:36:13.956Z,28.70
2022-08-25T19:38:40.709Z,28.70
2022-08-25T19:41:10.567Z,28.50
2022-08-25T19:43:55.285Z,28.40
2022-08-25T19:46:23.414Z,28.40
2022-08-25T19:48:50.447Z,28.20
2022-08-25T19:51:19.319Z,28.20
2022-08-25T19:53:54.349Z,28.20
2022-08-25T19:56:22.401Z,28.20
2022-08-25T19:58:49.235Z,28.10
2022-08-25T20:01:18.252Z,28.30
2022-08-25T20:03:45.294Z,28.40
2022-08-25T20:06:12.110Z,28.60
2022-08-25T20:08:42.885Z,28.50
2022-08-25T20:11:09.708Z,28.40
2022-08-25T20:13:36.426Z,28.30
2022-08-25T20:16:04.094Z,28.20
2022-08-25T20:18:32.616Z,28.20
2022-08-25T20:20:59.400Z,28.10
2022-08-25T20:23:44.700Z,27.90
2022-08-25T20:26:11.336Z,27.80
2022-08-25T20:28:42.020Z,27.80
2022-08-25T20:31:09.361Z,27.90
2022-08-25T20:33:36.154Z,28.00
2022-08-25T20:36:04.666Z,28.00
2022-08-25T20:38:31.956Z,27.90
2022-08-25T20:41:00.632Z,27.90
2022-08-25T20:43:27.921Z,27.80
2022-08-25T20:46:01.937Z,27.60
2022-08-25T20:48:28.681Z,27.60
2022-08-25T20:50:57.756Z,27.50
2022-08-25T20:53:25.170Z,27.50
2022-08-25T20:55:51.924Z,27.40
2022-08-25T20:58:18.978Z,27.40
2022-08-25T21:00:46.084Z,27.30
2022-08-25T21:03:12.890Z,27.30
2022-08-25T21:05:41.622Z,27.30
2022-08-25T21:08:10.072Z,27.30
2022-08-25T21:10:37.604Z,27.20
2022-08-25T21:13:04.214Z,27.20
2022-08-25T21:15:31.827Z,27.20
2022-08-25T21:17:58.982Z,27.10
2022-08-25T21:20:26.227Z,27.00
2022-08-25T21:22:54.257Z,26.90
2022-08-25T21:25:21.577Z,26.90
2022-08-25T21:27:49.256Z,26.90
2022-08-25T21:30:16.515Z,26.80
2022-08-25T21:32:53.780Z,26.60
2022-08-25T21:35:22.484Z,26.70
2022-08-25T21:37:53.228Z,26.70
2022-08-25T21:40:22.589Z,26.70
2022-08-25T21:42:49.782Z,26.40
2022-08-25T21:45:16.591Z,26.30
2022-08-25T21:47:47.710Z,26.30
2022-08-25T21:50:14.312Z,26.40
2022-08-25T21:52:41.201Z,26.40
2022-08-25T21:55:15.774Z,26.40
2022-08-25T21:57:43.297Z,26.40
2022-08-25T22:00:12.908Z,26.40
2022-08-25T22:02:39.576Z,26.50
2022-08-25T22:05:09.421Z,26.40
2022-08-25T22:07:41.616Z,26.50
2022-08-25T22:10:16.592Z,26.40
2022-08-25T22:12:44.776Z,26.40
2022-08-25T22:15:13.717Z,26.20
2022-08-25T22:17:40.885Z,26.10
2022-08-25T22:20:08.483Z,26.00
2022-08-25T22:22:35.955Z,26.00
2022-08-25T22:25:02.635Z,25.90
2022-08-25T22:27:30.383Z,25.90
2022-08-25T22:29:57.211Z,25.90
2022-08-25T22:32:23.892Z,25.80
2022-08-25T22:34:50.507Z,25.80
2022-08-25T22:37:17.833Z,25.80
2022-08-25T22:39:48.439Z,25.80
2022-08-25T22:42:15.289Z,25.70
2022-08-25T22:44:44.806Z,25.70
2022-08-25T22:47:12.225Z,25.70
2022-08-25T22:49:39.712Z,25.70
2022-08-25T22:52:07.302Z,25.60
2022-08-25T22:54:36.497Z,25.60
2022-08-25T22:57:06.682Z,25.60
2022-08-25T22:59:34.099Z,25.60
2022-08-25T23:02:00.963Z,25.50
2022-08-25T23:04:27.649Z,25.50
2022-08-25T23:06:54.410Z,25.50
2022-08-25T23:09:21.385Z,25.40
2022-08-25T23:11:48.795Z,25.40
2022-08-25T23:14:18.409Z,25.40
2022-08-25T23:16:45.154Z,25.30
2022-08-25T23:19:13.976Z,25.20
2022-08-25T23:22:00.033Z,25.20
2022-08-25T23:24:30.376Z,25.30
2022-08-25T23:27:01.977Z,25.20
2022-08-25T23:29:30.215Z,25.30
2022-08-25T23:31:58.282Z,25.30
2022-08-25T23:34:25.705Z,25.30
2022-08-25T23:36:52.537Z,25.20
2022-08-25T23:39:21.701Z,25.10
2022-08-25T23:41:49.401Z,25.10
2022-08-25T23:44:17.418Z,25.20
2022-08-25T23:46:44.811Z,25.10
2022-08-25T23:49:12.283Z,25.00
2022-08-25T23:51:40.940Z,25.00
2022-08-25T23:54:10.824Z,25.00
2022-08-25T23:56:44.454Z,25.00
2022-08-25T23:59:12.880Z,25.00
